sensor_id;sensor_type;location;lat;lon;timestamp;pressure;altitude;pressure_sealevel;temperature;humidity
28181;BME280;15464;50.988;10.318;2022-08-02T00:02:19;99210.56;;;17.39;77.60
28181;BME280;15464;50.988;10.318;2022-08-02T00:04:45;99208.91;;;17.30;77.71
28181;BME280;15464;50.988;10.318;2022-08-02T00:07:12;99209.38;;;17.25;78.30
28181;BME280;15464;50.988;10.318;2022-08-02T00:09:40;99199.31;;;17.19;78.51
28181;BME280;15464;50.988;10.318;2022-08-02T00:12:07;99203.50;;;17.14;77.54
28181;BME280;15464;50.988;10.318;2022-08-02T00:14:34;99202.00;;;17.11;79.24
28181;BME280;15464;50.988;10.318;2022-08-02T00:17:01;99200.81;;;17.06;79.46
28181;BME280;15464;50.988;10.318;2022-08-02T00:21:54;99197.63;;;16.94;80.12
28181;BME280;15464;50.988;10.318;2022-08-02T00:24:20;99199.28;;;16.87;81.08
28181;BME280;15464;50.988;10.318;2022-08-02T00:26:56;99196.78;;;16.85;79.44
28181;BME280;15464;50.988;10.318;2022-08-02T00:29:23;99203.44;;;16.81;81.80
28181;BME280;15464;50.988;10.318;2022-08-02T00:31:49;99200.59;;;16.75;80.73
28181;BME280;15464;50.988;10.318;2022-08-02T00:34:16;99194.72;;;16.71;78.78
28181;BME280;15464;50.988;10.318;2022-08-02T00:36:56;99200.09;;;16.71;80.19
28181;BME280;15464;50.988;10.318;2022-08-02T00:39:23;99199.59;;;16.68;80.22
28181;BME280;15464;50.988;10.318;2022-08-02T00:42:00;99206.41;;;16.62;80.61
28181;BME280;15464;50.988;10.318;2022-08-02T00:44:27;99200.69;;;16.57;80.98
28181;BME280;15464;50.988;10.318;2022-08-02T00:46:53;99203.00;;;16.52;81.40
28181;BME280;15464;50.988;10.318;2022-08-02T00:49:20;99203.34;;;16.49;80.19
28181;BME280;15464;50.988;10.318;2022-08-02T00:51:47;99214.38;;;16.46;79.85
28181;BME280;15464;50.988;10.318;2022-08-02T00:54:13;99209.31;;;16.43;80.83
28181;BME280;15464;50.988;10.318;2022-08-02T00:56:40;99199.25;;;16.37;81.68
28181;BME280;15464;50.988;10.318;2022-08-02T00:59:16;99201.28;;;16.35;81.25
28181;BME280;15464;50.988;10.318;2022-08-02T01:01:43;99201.91;;;16.29;81.54
28181;BME280;15464;50.988;10.318;2022-08-02T01:04:23;99212.09;;;16.25;80.75
28181;BME280;15464;50.988;10.318;2022-08-02T01:06:57;99214.25;;;16.22;80.45
28181;BME280;15464;50.988;10.318;2022-08-02T01:09:24;99217.44;;;16.17;81.38
28181;BME280;15464;50.988;10.318;2022-08-02T01:11:50;99206.34;;;16.12;81.78
28181;BME280;15464;50.988;10.318;2022-08-02T01:14:17;99204.16;;;16.07;80.52
28181;BME280;15464;50.988;10.318;2022-08-02T01:16:49;99215.00;;;16.06;81.36
28181;BME280;15464;50.988;10.318;2022-08-02T01:29:42;99206.84;;;15.82;83.24
28181;BME280;15464;50.988;10.318;2022-08-02T01:32:17;99209.00;;;15.78;83.44
28181;BME280;15464;50.988;10.318;2022-08-02T01:37:18;99209.94;;;15.69;82.62
28181;BME280;15464;50.988;10.318;2022-08-02T01:39:49;99218.13;;;15.67;82.62
28181;BME280;15464;50.988;10.318;2022-08-02T01:42:17;99205.91;;;15.65;82.15
28181;BME280;15464;50.988;10.318;2022-08-02T01:44:44;99213.41;;;15.61;82.55
28181;BME280;15464;50.988;10.318;2022-08-02T01:47:17;99215.53;;;15.58;82.92
28181;BME280;15464;50.988;10.318;2022-08-02T01:49:45;99224.72;;;15.55;83.29
28181;BME280;15464;50.988;10.318;2022-08-02T01:52:13;99231.47;;;15.50;83.42
28181;BME280;15464;50.988;10.318;2022-08-02T01:54:58;99228.28;;;15.46;83.26
28181;BME280;15464;50.988;10.318;2022-08-02T01:57:26;99235.78;;;15.43;84.10
28181;BME280;15464;50.988;10.318;2022-08-02T01:59:56;99226.00;;;15.33;85.32
28181;BME280;15464;50.988;10.318;2022-08-02T02:02:27;99234.03;;;15.33;84.64
28181;BME280;15464;50.988;10.318;2022-08-02T02:04:57;99234.50;;;15.29;84.28
28181;BME280;15464;50.988;10.318;2022-08-02T02:07:25;99229.16;;;15.29;84.26
28181;BME280;15464;50.988;10.318;2022-08-02T02:09:52;99224.94;;;15.26;83.59
28181;BME280;15464;50.988;10.318;2022-08-02T02:12:20;99227.94;;;15.23;85.56
28181;BME280;15464;50.988;10.318;2022-08-02T02:14:48;99237.94;;;15.21;83.90
28181;BME280;15464;50.988;10.318;2022-08-02T02:17:17;99234.56;;;15.19;84.61
28181;BME280;15464;50.988;10.318;2022-08-02T02:20:05;99242.72;;;15.18;83.65
28181;BME280;15464;50.988;10.318;2022-08-02T02:22:32;99236.84;;;15.14;83.71
28181;BME280;15464;50.988;10.318;2022-08-02T02:25:00;99233.66;;;15.11;83.64
28181;BME280;15464;50.988;10.318;2022-08-02T02:27:30;99239.00;;;15.11;84.27
28181;BME280;15464;50.988;10.318;2022-08-02T02:29:57;99237.63;;;15.07;83.72
28181;BME280;15464;50.988;10.318;2022-08-02T02:32:26;99233.50;;;14.94;87.25
28181;BME280;15464;50.988;10.318;2022-08-02T02:34:52;99244.78;;;14.88;87.04
28181;BME280;15464;50.988;10.318;2022-08-02T02:37:21;99233.94;;;14.90;85.94
28181;BME280;15464;50.988;10.318;2022-08-02T02:39:49;99235.25;;;14.86;86.22
28181;BME280;15464;50.988;10.318;2022-08-02T02:42:16;99229.91;;;14.86;85.36
28181;BME280;15464;50.988;10.318;2022-08-02T02:44:45;99230.19;;;14.83;85.25
28181;BME280;15464;50.988;10.318;2022-08-02T02:47:13;99234.31;;;14.77;86.75
28181;BME280;15464;50.988;10.318;2022-08-02T02:49:39;99231.78;;;14.76;85.89
28181;BME280;15464;50.988;10.318;2022-08-02T02:52:08;99232.78;;;14.75;85.14
28181;BME280;15464;50.988;10.318;2022-08-02T02:54:35;99234.06;;;14.71;86.35
28181;BME280;15464;50.988;10.318;2022-08-02T02:57:03;99229.06;;;14.68;86.46
28181;BME280;15464;50.988;10.318;2022-08-02T02:59:34;99231.03;;;14.66;86.13
28181;BME280;15464;50.988;10.318;2022-08-02T03:02:01;99233.69;;;14.66;85.69
28181;BME280;15464;50.988;10.318;2022-08-02T03:04:28;99235.66;;;14.64;85.66
28181;BME280;15464;50.988;10.318;2022-08-02T03:07:15;99239.78;;;14.58;86.19
28181;BME280;15464;50.988;10.318;2022-08-02T03:09:42;99234.75;;;14.55;85.82
28181;BME280;15464;50.988;10.318;2022-08-02T03:12:09;99225.19;;;14.52;85.93
28181;BME280;15464;50.988;10.318;2022-08-02T03:14:42;99232.50;;;14.50;85.89
28181;BME280;15464;50.988;10.318;2022-08-02T03:17:09;99234.78;;;14.45;85.99
28181;BME280;15464;50.988;10.318;2022-08-02T03:19:35;99241.25;;;14.43;86.34
28181;BME280;15464;50.988;10.318;2022-08-02T03:22:02;99236.91;;;14.42;85.69
28181;BME280;15464;50.988;10.318;2022-08-02T03:24:29;99242.41;;;14.40;85.40
28181;BME280;15464;50.988;10.318;2022-08-02T03:26:55;99235.38;;;14.39;85.25
28181;BME280;15464;50.988;10.318;2022-08-02T03:29:22;99232.97;;;14.36;85.52
28181;BME280;15464;50.988;10.318;2022-08-02T03:31:48;99246.59;;;14.33;85.73
28181;BME280;15464;50.988;10.318;2022-08-02T03:34:15;99239.88;;;14.29;85.58
28181;BME280;15464;50.988;10.318;2022-08-02T03:36:41;99246.34;;;14.27;85.79
28181;BME280;15464;50.988;10.318;2022-08-02T03:39:08;99242.97;;;14.25;85.25
28181;BME280;15464;50.988;10.318;2022-08-02T03:41:36;99247.78;;;14.21;85.46
28181;BME280;15464;50.988;10.318;2022-08-02T03:44:03;99244.41;;;14.19;84.97
28181;BME280;15464;50.988;10.318;2022-08-02T03:46:30;99243.75;;;14.17;86.20
28181;BME280;15464;50.988;10.318;2022-08-02T03:48:58;99244.00;;;14.14;86.23
28181;BME280;15464;50.988;10.318;2022-08-02T03:51:25;99241.66;;;14.11;86.63
28181;BME280;15464;50.988;10.318;2022-08-02T03:53:51;99237.44;;;14.08;87.05
28181;BME280;15464;50.988;10.318;2022-08-02T03:56:18;99243.22;;;14.04;87.01
28181;BME280;15464;50.988;10.318;2022-08-02T03:58:48;99229.88;;;14.04;87.65
28181;BME280;15464;50.988;10.318;2022-08-02T04:01:15;99237.19;;;14.02;89.26
28181;BME280;15464;50.988;10.318;2022-08-02T04:03:42;99236.47;;;14.00;88.18
28181;BME280;15464;50.988;10.318;2022-08-02T04:06:08;99242.81;;;13.99;87.82
28181;BME280;15464;50.988;10.318;2022-08-02T04:08:35;99249.13;;;13.98;87.45
28181;BME280;15464;50.988;10.318;2022-08-02T04:11:04;99244.47;;;14.00;87.89
28181;BME280;15464;50.988;10.318;2022-08-02T04:13:49;99244.47;;;14.00;88.44
28181;BME280;15464;50.988;10.318;2022-08-02T04:16:20;99249.81;;;14.00;87.61
28181;BME280;15464;50.988;10.318;2022-08-02T04:18:54;99246.16;;;14.01;87.70
28181;BME280;15464;50.988;10.318;2022-08-02T04:21:22;99241.66;;;14.01;87.69
28181;BME280;15464;50.988;10.318;2022-08-02T04:23:49;99243.50;;;14.01;87.40
28181;BME280;15464;50.988;10.318;2022-08-02T04:26:17;99251.22;;;14.04;88.45
28181;BME280;15464;50.988;10.318;2022-08-02T04:28:52;99255.56;;;14.05;89.57
28181;BME280;15464;50.988;10.318;2022-08-02T04:31:19;99251.63;;;14.09;87.81
28181;BME280;15464;50.988;10.318;2022-08-02T04:33:46;99253.16;;;14.11;87.77
28181;BME280;15464;50.988;10.318;2022-08-02T04:36:13;99255.53;;;14.14;88.18
28181;BME280;15464;50.988;10.318;2022-08-02T04:38:56;99259.56;;;14.19;88.71
28181;BME280;15464;50.988;10.318;2022-08-02T04:41:22;99255.66;;;14.23;87.91
28181;BME280;15464;50.988;10.318;2022-08-02T04:44:05;99253.25;;;14.29;87.53
28181;BME280;15464;50.988;10.318;2022-08-02T04:46:32;99253.50;;;14.36;88.95
28181;BME280;15464;50.988;10.318;2022-08-02T04:48:59;99257.00;;;14.36;87.35
28181;BME280;15464;50.988;10.318;2022-08-02T04:51:26;99255.28;;;14.45;88.97
28181;BME280;15464;50.988;10.318;2022-08-02T04:54:03;99255.53;;;14.51;89.35
28181;BME280;15464;50.988;10.318;2022-08-02T04:56:34;99261.66;;;14.62;89.79
28181;BME280;15464;50.988;10.318;2022-08-02T04:59:01;99264.81;;;14.75;91.42
28181;BME280;15464;50.988;10.318;2022-08-02T05:01:28;99260.72;;;14.80;90.03
28181;BME280;15464;50.988;10.318;2022-08-02T05:03:54;99265.69;;;14.93;88.63
28181;BME280;15464;50.988;10.318;2022-08-02T05:06:21;99263.44;;;14.98;90.30
28181;BME280;15464;50.988;10.318;2022-08-02T05:08:47;99270.88;;;14.94;88.89
28181;BME280;15464;50.988;10.318;2022-08-02T05:11:18;99271.72;;;14.95;88.29
28181;BME280;15464;50.988;10.318;2022-08-02T05:13:45;99274.63;;;15.02;88.24
28181;BME280;15464;50.988;10.318;2022-08-02T05:16:25;99270.66;;;15.06;87.30
28181;BME280;15464;50.988;10.318;2022-08-02T05:18:57;99273.44;;;15.14;87.17
28181;BME280;15464;50.988;10.318;2022-08-02T05:21:23;99268.63;;;15.17;85.81
28181;BME280;15464;50.988;10.318;2022-08-02T05:23:50;99270.38;;;15.26;86.12
28181;BME280;15464;50.988;10.318;2022-08-02T05:26:16;99272.75;;;15.29;86.61
28181;BME280;15464;50.988;10.318;2022-08-02T05:28:43;99271.75;;;15.30;86.60
28181;BME280;15464;50.988;10.318;2022-08-02T05:31:10;99268.78;;;15.33;85.58
28181;BME280;15464;50.988;10.318;2022-08-02T05:33:38;99278.16;;;15.38;87.35
28181;BME280;15464;50.988;10.318;2022-08-02T05:36:05;99272.91;;;15.46;87.48
28181;BME280;15464;50.988;10.318;2022-08-02T05:38:31;99275.09;;;15.50;87.33
28181;BME280;15464;50.988;10.318;2022-08-02T05:41:02;99277.38;;;15.55;86.98
28181;BME280;15464;50.988;10.318;2022-08-02T05:43:29;99281.25;;;15.60;87.22
28181;BME280;15464;50.988;10.318;2022-08-02T05:45:56;99275.06;;;15.60;87.67
28181;BME280;15464;50.988;10.318;2022-08-02T05:48:22;99274.28;;;15.67;86.69
28181;BME280;15464;50.988;10.318;2022-08-02T05:51:00;99278.09;;;15.65;88.07
28181;BME280;15464;50.988;10.318;2022-08-02T05:55:56;99288.91;;;15.81;87.71
28181;BME280;15464;50.988;10.318;2022-08-02T05:58:42;99292.66;;;15.88;87.93
28181;BME280;15464;50.988;10.318;2022-08-02T06:01:13;99285.69;;;15.95;88.67
28181;BME280;15464;50.988;10.318;2022-08-02T06:03:49;99291.88;;;15.96;89.12
28181;BME280;15464;50.988;10.318;2022-08-02T06:06:16;99283.91;;;16.04;90.29
28181;BME280;15464;50.988;10.318;2022-08-02T06:08:53;99272.78;;;16.17;88.56
28181;BME280;15464;50.988;10.318;2022-08-02T06:11:21;99281.38;;;16.28;87.59
28181;BME280;15464;50.988;10.318;2022-08-02T06:13:48;99278.78;;;16.44;87.72
28181;BME280;15464;50.988;10.318;2022-08-02T06:16:15;99280.88;;;16.59;87.44
28181;BME280;15464;50.988;10.318;2022-08-02T06:18:43;99275.25;;;16.70;87.77
28181;BME280;15464;50.988;10.318;2022-08-02T06:21:11;99283.03;;;16.89;87.90
28181;BME280;15464;50.988;10.318;2022-08-02T06:23:59;99290.13;;;17.14;87.32
28181;BME280;15464;50.988;10.318;2022-08-02T06:26:28;99290.50;;;17.44;86.82
28181;BME280;15464;50.988;10.318;2022-08-02T06:28:55;99288.53;;;17.62;84.88
28181;BME280;15464;50.988;10.318;2022-08-02T06:31:22;99283.47;;;17.99;84.10
28181;BME280;15464;50.988;10.318;2022-08-02T06:33:48;99276.19;;;18.40;83.63
28181;BME280;15464;50.988;10.318;2022-08-02T06:38:43;99275.25;;;19.11;79.33
28181;BME280;15464;50.988;10.318;2022-08-02T06:41:16;99274.69;;;19.39;77.55
28181;BME280;15464;50.988;10.318;2022-08-02T06:46:17;99269.44;;;20.05;76.11
28181;BME280;15464;50.988;10.318;2022-08-02T06:49:03;99267.47;;;20.51;75.04
28181;BME280;15464;50.988;10.318;2022-08-02T06:51:30;99262.13;;;20.87;72.90
28181;BME280;15464;50.988;10.318;2022-08-02T06:53:57;99259.09;;;21.12;70.45
28181;BME280;15464;50.988;10.318;2022-08-02T06:56:23;99252.88;;;21.47;70.41
28181;BME280;15464;50.988;10.318;2022-08-02T06:58:50;99260.94;;;21.68;68.27
28181;BME280;15464;50.988;10.318;2022-08-02T07:01:17;99265.81;;;22.01;68.51
28181;BME280;15464;50.988;10.318;2022-08-02T07:03:44;99267.22;;;22.25;67.03
28181;BME280;15464;50.988;10.318;2022-08-02T07:06:11;99264.03;;;22.42;66.22
28181;BME280;15464;50.988;10.318;2022-08-02T07:08:37;99262.09;;;22.71;65.45
28181;BME280;15464;50.988;10.318;2022-08-02T07:11:04;99267.13;;;22.74;64.86
28181;BME280;15464;50.988;10.318;2022-08-02T07:13:31;99249.88;;;22.75;64.03
28181;BME280;15464;50.988;10.318;2022-08-02T07:16:04;99240.25;;;23.26;64.20
28181;BME280;15464;50.988;10.318;2022-08-02T07:18:31;99254.91;;;23.58;62.48
28181;BME280;15464;50.988;10.318;2022-08-02T07:20:57;99246.16;;;23.69;60.43
28181;BME280;15464;50.988;10.318;2022-08-02T07:23:24;99248.69;;;23.64;58.43
28181;BME280;15464;50.988;10.318;2022-08-02T07:25:50;99243.47;;;23.76;60.47
28181;BME280;15464;50.988;10.318;2022-08-02T07:28:29;99232.41;;;24.04;56.79
28181;BME280;15464;50.988;10.318;2022-08-02T07:30:56;99223.44;;;24.17;57.52
28181;BME280;15464;50.988;10.318;2022-08-02T07:33:23;99217.00;;;23.98;58.59
28181;BME280;15464;50.988;10.318;2022-08-02T07:36:06;99210.72;;;24.10;58.32
28181;BME280;15464;50.988;10.318;2022-08-02T07:38:41;99205.72;;;24.21;58.28
28181;BME280;15464;50.988;10.318;2022-08-02T07:41:10;99208.19;;;24.42;56.96
28181;BME280;15464;50.988;10.318;2022-08-02T07:43:37;99205.41;;;24.55;55.53
28181;BME280;15464;50.988;10.318;2022-08-02T07:46:03;99211.78;;;24.74;53.92
28181;BME280;15464;50.988;10.318;2022-08-02T07:48:30;99211.00;;;24.73;53.91
28181;BME280;15464;50.988;10.318;2022-08-02T07:50:57;99226.53;;;24.40;53.63
28181;BME280;15464;50.988;10.318;2022-08-02T07:53:23;99224.28;;;24.81;54.92
28181;BME280;15464;50.988;10.318;2022-08-02T07:56:10;99219.34;;;25.16;55.03
28181;BME280;15464;50.988;10.318;2022-08-02T07:58:36;99212.13;;;25.04;54.31
28181;BME280;15464;50.988;10.318;2022-08-02T08:01:03;99222.94;;;25.42;54.22
28181;BME280;15464;50.988;10.318;2022-08-02T08:03:29;99214.75;;;25.17;54.27
28181;BME280;15464;50.988;10.318;2022-08-02T08:05:56;99207.41;;;24.79;54.26
28181;BME280;15464;50.988;10.318;2022-08-02T08:08:23;99207.00;;;25.20;53.61
28181;BME280;15464;50.988;10.318;2022-08-02T08:10:49;99208.91;;;25.45;53.60
28181;BME280;15464;50.988;10.318;2022-08-02T08:13:16;99214.84;;;25.35;51.82
28181;BME280;15464;50.988;10.318;2022-08-02T08:15:43;99218.47;;;25.60;52.11
28181;BME280;15464;50.988;10.318;2022-08-02T08:18:18;99222.44;;;25.51;51.21
28181;BME280;15464;50.988;10.318;2022-08-02T08:20:44;99195.06;;;25.59;49.54
28181;BME280;15464;50.988;10.318;2022-08-02T08:23:11;99195.38;;;25.69;48.32
28181;BME280;15464;50.988;10.318;2022-08-02T08:25:37;99195.84;;;25.35;47.75
28181;BME280;15464;50.988;10.318;2022-08-02T08:28:07;99197.16;;;25.57;48.98
28181;BME280;15464;50.988;10.318;2022-08-02T08:30:33;99192.75;;;25.81;48.42
28181;BME280;15464;50.988;10.318;2022-08-02T08:33:00;99195.75;;;25.48;46.49
28181;BME280;15464;50.988;10.318;2022-08-02T08:35:27;99197.72;;;25.91;46.48
28181;BME280;15464;50.988;10.318;2022-08-02T08:37:53;99192.00;;;26.17;45.89
28181;BME280;15464;50.988;10.318;2022-08-02T08:40:20;99191.38;;;25.97;44.48
28181;BME280;15464;50.988;10.318;2022-08-02T08:42:47;99193.75;;;25.87;43.36
28181;BME280;15464;50.988;10.318;2022-08-02T08:45:13;99178.25;;;25.69;44.26
28181;BME280;15464;50.988;10.318;2022-08-02T08:47:40;99179.53;;;25.66;44.93
28181;BME280;15464;50.988;10.318;2022-08-02T08:50:09;99175.84;;;25.54;45.26
28181;BME280;15464;50.988;10.318;2022-08-02T08:52:47;99184.47;;;25.45;45.17
28181;BME280;15464;50.988;10.318;2022-08-02T08:55:14;99185.69;;;25.17;45.59
28181;BME280;15464;50.988;10.318;2022-08-02T08:57:43;99192.09;;;24.98;45.46
28181;BME280;15464;50.988;10.318;2022-08-02T09:00:11;99184.78;;;24.99;45.84
28181;BME280;15464;50.988;10.318;2022-08-02T09:02:42;99187.38;;;24.74;46.89
28181;BME280;15464;50.988;10.318;2022-08-02T09:05:09;99199.63;;;24.32;48.00
28181;BME280;15464;50.988;10.318;2022-08-02T09:07:36;99190.28;;;24.15;48.96
28181;BME280;15464;50.988;10.318;2022-08-02T09:10:29;99193.63;;;24.03;49.28
28181;BME280;15464;50.988;10.318;2022-08-02T09:15:58;99211.38;;;23.60;50.24
28181;BME280;15464;50.988;10.318;2022-08-02T09:18:42;99204.50;;;23.51;50.28
28181;BME280;15464;50.988;10.318;2022-08-02T09:21:14;99195.75;;;23.68;50.73
28181;BME280;15464;50.988;10.318;2022-08-02T09:23:42;99201.59;;;23.72;50.47
28181;BME280;15464;50.988;10.318;2022-08-02T09:26:11;99197.00;;;23.73;50.48
28181;BME280;15464;50.988;10.318;2022-08-02T09:28:38;99193.25;;;23.47;49.32
28181;BME280;15464;50.988;10.318;2022-08-02T09:31:09;99177.41;;;23.51;50.37
28181;BME280;15464;50.988;10.318;2022-08-02T09:33:39;99182.44;;;23.54;49.79
28181;BME280;15464;50.988;10.318;2022-08-02T09:36:10;99183.41;;;23.26;49.67
28181;BME280;15464;50.988;10.318;2022-08-02T09:38:38;99182.78;;;23.24;49.63
28181;BME280;15464;50.988;10.318;2022-08-02T09:41:05;99185.28;;;23.32;49.95
28181;BME280;15464;50.988;10.318;2022-08-02T09:43:36;99186.16;;;23.46;50.67
28181;BME280;15464;50.988;10.318;2022-08-02T09:46:24;99186.13;;;23.26;48.03
28181;BME280;15464;50.988;10.318;2022-08-02T09:53:51;99182.34;;;23.08;48.07
28181;BME280;15464;50.988;10.318;2022-08-02T09:59:18;99174.03;;;23.22;47.69
28181;BME280;15464;50.988;10.318;2022-08-02T10:01:45;99175.50;;;23.31;47.44
28181;BME280;15464;50.988;10.318;2022-08-02T10:04:20;99182.41;;;23.41;47.81
28181;BME280;15464;50.988;10.318;2022-08-02T10:06:50;99168.22;;;23.32;46.98
28181;BME280;15464;50.988;10.318;2022-08-02T10:09:17;99168.66;;;23.36;46.51
28181;BME280;15464;50.988;10.318;2022-08-02T10:11:44;99157.38;;;23.32;46.77
28181;BME280;15464;50.988;10.318;2022-08-02T10:14:11;99156.16;;;23.35;46.71
28181;BME280;15464;50.988;10.318;2022-08-02T10:16:38;99162.41;;;23.35;46.48
28181;BME280;15464;50.988;10.318;2022-08-02T10:19:05;99166.97;;;23.35;46.49
28181;BME280;15464;50.988;10.318;2022-08-02T10:22:17;99152.41;;;23.55;47.97
28181;BME280;15464;50.988;10.318;2022-08-02T10:24:22;99147.38;;;23.92;46.49
28181;BME280;15464;50.988;10.318;2022-08-02T10:26:50;99149.03;;;23.86;44.90
28181;BME280;15464;50.988;10.318;2022-08-02T10:29:17;99145.09;;;23.82;46.69
28181;BME280;15464;50.988;10.318;2022-08-02T10:34:12;99139.88;;;23.94;46.07
28181;BME280;15464;50.988;10.318;2022-08-02T10:36:40;99142.81;;;23.92;46.63
28181;BME280;15464;50.988;10.318;2022-08-02T10:39:07;99138.41;;;23.98;44.87
28181;BME280;15464;50.988;10.318;2022-08-02T10:41:47;99138.19;;;23.99;44.47
28181;BME280;15464;50.988;10.318;2022-08-02T10:47:26;99134.59;;;24.25;46.73
28181;BME280;15464;50.988;10.318;2022-08-02T10:49:49;99127.22;;;24.45;45.03
28181;BME280;15464;50.988;10.318;2022-08-02T10:52:16;99125.63;;;24.69;44.92
28181;BME280;15464;50.988;10.318;2022-08-02T10:54:48;99127.31;;;24.70;44.08
28181;BME280;15464;50.988;10.318;2022-08-02T10:59:49;99124.25;;;24.60;43.96
28181;BME280;15464;50.988;10.318;2022-08-02T11:02:32;99119.47;;;24.87;43.43
28181;BME280;15464;50.988;10.318;2022-08-02T11:04:59;99119.00;;;25.03;43.65
28181;BME280;15464;50.988;10.318;2022-08-02T11:07:30;99121.81;;;25.15;43.78
28181;BME280;15464;50.988;10.318;2022-08-02T11:09:57;99117.69;;;25.06;43.31
28181;BME280;15464;50.988;10.318;2022-08-02T11:12:27;99127.00;;;25.48;43.61
28181;BME280;15464;50.988;10.318;2022-08-02T11:14:58;99114.25;;;25.73;42.95
28181;BME280;15464;50.988;10.318;2022-08-02T11:17:24;99113.66;;;25.89;41.75
28181;BME280;15464;50.988;10.318;2022-08-02T11:20:13;99119.38;;;25.81;40.80
28181;BME280;15464;50.988;10.318;2022-08-02T11:22:40;99121.59;;;26.09;41.30
28181;BME280;15464;50.988;10.318;2022-08-02T11:27:49;99106.78;;;26.60;39.80
28181;BME280;15464;50.988;10.318;2022-08-02T11:30:16;99099.69;;;26.22;39.77
28181;BME280;15464;50.988;10.318;2022-08-02T11:32:43;99112.97;;;25.94;40.08
28181;BME280;15464;50.988;10.318;2022-08-02T11:35:10;99102.13;;;26.48;39.66
28181;BME280;15464;50.988;10.318;2022-08-02T11:37:37;99109.88;;;26.93;39.00
28181;BME280;15464;50.988;10.318;2022-08-02T11:40:05;99103.66;;;27.04;38.54
28181;BME280;15464;50.988;10.318;2022-08-02T11:42:45;99112.31;;;27.36;37.43
28181;BME280;15464;50.988;10.318;2022-08-02T11:45:13;99107.16;;;27.81;35.31
28181;BME280;15464;50.988;10.318;2022-08-02T11:47:48;99087.78;;;28.06;36.01
28181;BME280;15464;50.988;10.318;2022-08-02T11:50:15;99090.47;;;28.41;35.15
28181;BME280;15464;50.988;10.318;2022-08-02T11:52:42;99083.47;;;28.73;32.87
28181;BME280;15464;50.988;10.318;2022-08-02T11:55:10;99084.28;;;28.85;34.24
28181;BME280;15464;50.988;10.318;2022-08-02T11:57:37;99088.81;;;28.68;33.13
28181;BME280;15464;50.988;10.318;2022-08-02T12:00:24;99078.38;;;28.94;32.55
28181;BME280;15464;50.988;10.318;2022-08-02T12:02:56;99079.84;;;29.46;33.24
28181;BME280;15464;50.988;10.318;2022-08-02T12:05:22;99070.94;;;29.73;31.87
28181;BME280;15464;50.988;10.318;2022-08-02T12:08:09;99075.97;;;30.19;32.27
28181;BME280;15464;50.988;10.318;2022-08-02T12:10:36;99080.56;;;29.92;29.18
28181;BME280;15464;50.988;10.318;2022-08-02T12:13:11;99075.09;;;30.57;30.11
28181;BME280;15464;50.988;10.318;2022-08-02T12:15:39;99071.72;;;30.77;29.31
28181;BME280;15464;50.988;10.318;2022-08-02T12:18:07;99080.63;;;30.89;27.20
28181;BME280;15464;50.988;10.318;2022-08-02T12:20:53;99079.53;;;30.41;28.28
28181;BME280;15464;50.988;10.318;2022-08-02T12:23:19;99078.75;;;30.68;27.81
28181;BME280;15464;50.988;10.318;2022-08-02T12:25:58;99068.31;;;30.43;26.90
28181;BME280;15464;50.988;10.318;2022-08-02T12:28:25;99076.16;;;30.56;27.60
28181;BME280;15464;50.988;10.318;2022-08-02T12:30:56;99080.16;;;30.05;27.11
28181;BME280;15464;50.988;10.318;2022-08-02T12:33:27;99075.91;;;30.14;26.07
28181;BME280;15464;50.988;10.318;2022-08-02T12:35:54;99078.00;;;30.51;26.65
28181;BME280;15464;50.988;10.318;2022-08-02T12:38:21;99073.81;;;30.65;26.94
28181;BME280;15464;50.988;10.318;2022-08-02T12:40:47;99065.34;;;30.66;27.33
28181;BME280;15464;50.988;10.318;2022-08-02T12:43:15;99077.84;;;31.11;26.85
28181;BME280;15464;50.988;10.318;2022-08-02T12:48:14;99064.63;;;31.40;27.17
28181;BME280;15464;50.988;10.318;2022-08-02T12:50:41;99078.09;;;31.09;25.95
28181;BME280;15464;50.988;10.318;2022-08-02T12:53:12;99076.09;;;30.73;27.32
28181;BME280;15464;50.988;10.318;2022-08-02T12:56:25;99081.16;;;31.50;27.76
28181;BME280;15464;50.988;10.318;2022-08-02T12:58:44;99067.94;;;31.42;25.88
28181;BME280;15464;50.988;10.318;2022-08-02T13:01:13;99069.56;;;31.43;26.75
28181;BME280;15464;50.988;10.318;2022-08-02T13:03:45;99067.03;;;31.68;26.74
28181;BME280;15464;50.988;10.318;2022-08-02T13:06:32;99059.75;;;31.84;25.40
28181;BME280;15464;50.988;10.318;2022-08-02T13:09:14;99058.50;;;32.12;26.02
28181;BME280;15464;50.988;10.318;2022-08-02T13:11:41;99054.66;;;32.13;26.02
28181;BME280;15464;50.988;10.318;2022-08-02T13:14:09;99050.19;;;31.91;24.94
28181;BME280;15464;50.988;10.318;2022-08-02T13:16:36;99061.56;;;31.68;24.82
28181;BME280;15464;50.988;10.318;2022-08-02T13:19:02;99050.63;;;32.25;23.60
28181;BME280;15464;50.988;10.318;2022-08-02T13:21:29;99059.84;;;32.04;24.23
28181;BME280;15464;50.988;10.318;2022-08-02T13:24:15;99062.53;;;31.52;23.91
28181;BME280;15464;50.988;10.318;2022-08-02T13:27:02;99064.34;;;31.73;25.04
28181;BME280;15464;50.988;10.318;2022-08-02T13:29:30;99062.81;;;31.18;24.49
28181;BME280;15464;50.988;10.318;2022-08-02T13:31:56;99047.69;;;31.85;26.24
28181;BME280;15464;50.988;10.318;2022-08-02T13:34:23;99050.22;;;32.01;24.11
28181;BME280;15464;50.988;10.318;2022-08-02T13:36:50;99042.94;;;32.22;25.70
28181;BME280;15464;50.988;10.318;2022-08-02T13:39:16;99038.03;;;32.34;23.72
28181;BME280;15464;50.988;10.318;2022-08-02T13:41:43;99026.50;;;32.37;21.81
28181;BME280;15464;50.988;10.318;2022-08-02T13:44:09;99028.06;;;32.18;23.27
28181;BME280;15464;50.988;10.318;2022-08-02T13:46:36;99038.41;;;31.54;24.82
28181;BME280;15464;50.988;10.318;2022-08-02T13:49:11;99036.59;;;31.28;24.97
28181;BME280;15464;50.988;10.318;2022-08-02T13:51:44;99025.22;;;30.82;25.43